Terminal Aerodrome Forecast
Issued by NWS Wichita, KS

Home | Current Version | Previous Version | Graphics & Text | Print | Product List | Glossary On
Versions: 1 2 3 4 5 6 7 8 9 10 11 12 13 14 15 16 17 18 19 20 21 22 23 24
000
FTUS43 KICT 182359 AAA
TAFICT
TAF AMD
KICT 182359Z 1900/1924 15010KT P6SM VCTS SCT040CB BKN060
      TEMPO 1900/1904 VRB15G25KT 2SM +TSRA BKN025CB
     FM190400 15006KT P6SM VCTS SCT030 BKN050CB
     FM191000 VRB06KT P6SM VCSH SCT080 BKN120
     FM191500 32011KT P6SM SCT100
     FM192100 32013KT 6SM -SHRA VCTS SCT030CB OVC060=

USA.gov is the U.S. government's official web portal to all federal, state and local government web resources and services.